createdAt,value
2022-09-25T00:00:22.680Z,1009.14
2022-09-25T00:01:22.737Z,1009.16
2022-09-25T00:02:22.701Z,1009.18
2022-09-25T00:03:22.663Z,1009.17
2022-09-25T00:04:22.673Z,1009.17
2022-09-25T00:05:22.656Z,1009.16
2022-09-25T00:06:22.649Z,1009.15
2022-09-25T00:07:22.642Z,1009.21
2022-09-25T00:08:22.656Z,1009.20
2022-09-25T00:09:22.745Z,1009.24
2022-09-25T00:10:22.777Z,1009.23
2022-09-25T00:11:22.668Z,1009.23
2022-09-25T00:12:22.643Z,1009.26
2022-09-25T00:13:22.634Z,1009.25
2022-09-25T00:14:22.629Z,1009.26
2022-09-25T00:15:22.622Z,1009.24
2022-09-25T00:16:22.709Z,1009.28
2022-09-25T00:17:22.620Z,1009.30
2022-09-25T00:18:22.623Z,1009.25
2022-09-25T00:19:22.666Z,1009.24
2022-09-25T00:20:22.614Z,1009.26
2022-09-25T00:21:22.618Z,1009.31
2022-09-25T00:22:22.615Z,1009.25
2022-09-25T00:23:22.603Z,1009.22
2022-09-25T00:24:22.660Z,1009.24
2022-09-25T00:25:22.705Z,1009.24
2022-09-25T00:26:22.604Z,1009.23
2022-09-25T00:27:22.588Z,1009.23
2022-09-25T00:28:22.587Z,1009.19
2022-09-25T00:29:22.593Z,1009.20
2022-09-25T00:30:22.671Z,1009.20
2022-09-25T00:31:22.659Z,1009.26
2022-09-25T00:32:22.581Z,1009.20
2022-09-25T00:33:22.582Z,1009.19
2022-09-25T00:34:22.578Z,1009.23
2022-09-25T00:35:22.575Z,1009.16
2022-09-25T00:36:22.577Z,1009.23
2022-09-25T00:37:22.573Z,1009.20
2022-09-25T00:38:22.578Z,1009.23
2022-09-25T00:39:22.566Z,1009.20
2022-09-25T00:40:22.644Z,1009.16
2022-09-25T00:41:22.589Z,1009.20
2022-09-25T00:42:22.567Z,1009.20
2022-09-25T00:43:22.556Z,1009.16
2022-09-25T00:44:22.572Z,1009.21
2022-09-25T00:45:22.555Z,1009.23
2022-09-25T00:46:22.683Z,1009.17
2022-09-25T00:47:22.534Z,1009.19
2022-09-25T00:48:22.543Z,1009.18
2022-09-25T00:49:22.532Z,1009.18
2022-09-25T00:50:22.549Z,1009.19
2022-09-25T00:51:22.549Z,1009.14
2022-09-25T00:52:22.536Z,1009.12
2022-09-25T00:53:22.543Z,1009.17
2022-09-25T00:54:22.535Z,1009.14
2022-09-25T00:55:22.519Z,1009.14
2022-09-25T00:56:22.523Z,1009.16
2022-09-25T00:57:22.537Z,1009.13
2022-09-25T00:58:22.506Z,1009.13
2022-09-25T00:59:22.519Z,1009.16
2022-09-25T01:00:22.505Z,1009.20
2022-09-25T01:01:22.596Z,1009.15
2022-09-25T01:02:22.611Z,1009.17
2022-09-25T01:03:22.499Z,1009.17
2022-09-25T01:04:22.502Z,1009.19
2022-09-25T01:05:22.493Z,1009.17
2022-09-25T01:06:22.490Z,1009.16
2022-09-25T01:07:22.492Z,1009.16
2022-09-25T01:08:22.497Z,1009.18
2022-09-25T01:09:22.477Z,1009.17
2022-09-25T01:10:22.499Z,1009.18
2022-09-25T01:11:22.488Z,1009.15
2022-09-25T01:12:22.480Z,1009.18
2022-09-25T01:13:22.587Z,1009.18
2022-09-25T01:14:22.479Z,1009.16
2022-09-25T01:15:22.475Z,1009.18
2022-09-25T01:16:22.561Z,1009.19
2022-09-25T01:17:22.465Z,1009.18
2022-09-25T01:18:22.469Z,1009.19
2022-09-25T01:19:22.470Z,1009.16
2022-09-25T01:20:22.463Z,1009.18
2022-09-25T01:21:22.470Z,1009.16
2022-09-25T01:22:22.471Z,1009.17
2022-09-25T01:23:22.465Z,1009.17
2022-09-25T01:24:22.445Z,1009.18
2022-09-25T01:25:22.438Z,1009.16
2022-09-25T01:26:22.445Z,1009.20
2022-09-25T01:27:22.435Z,1009.19
2022-09-25T01:28:22.459Z,1009.20
2022-09-25T01:29:22.471Z,1009.15
2022-09-25T01:30:22.424Z,1009.19
2022-09-25T01:31:22.517Z,1009.19
2022-09-25T01:32:22.424Z,1009.19
2022-09-25T01:33:22.415Z,1009.17
2022-09-25T01:34:22.425Z,1009.21
2022-09-25T01:35:22.421Z,1009.16
2022-09-25T01:36:22.420Z,1009.18
2022-09-25T01:37:22.415Z,1009.19
2022-09-25T01:38:22.412Z,1009.16
2022-09-25T01:39:22.401Z,1009.21
2022-09-25T01:40:22.453Z,1009.15
2022-09-25T01:41:22.401Z,1009.17
2022-09-25T01:42:22.394Z,1009.16
2022-09-25T01:43:22.386Z,1009.17
2022-09-25T01:44:22.393Z,1009.16
2022-09-25T01:45:22.427Z,1009.20
2022-09-25T01:46:22.493Z,1009.17
2022-09-25T01:47:22.403Z,1009.21
2022-09-25T01:48:22.390Z,1009.22
2022-09-25T01:49:22.392Z,1009.22
2022-09-25T01:50:22.376Z,1009.25
2022-09-25T01:51:22.376Z,1009.22
2022-09-25T01:52:22.383Z,1009.19
2022-09-25T01:53:22.366Z,1009.20
2022-09-25T01:54:22.366Z,1009.23
2022-09-25T01:55:22.375Z,1009.21
2022-09-25T01:56:22.354Z,1009.21
2022-09-25T01:57:22.350Z,1009.24
2022-09-25T01:58:22.362Z,1009.25
2022-09-25T01:59:22.364Z,1009.28
2022-09-25T02:00:22.347Z,1009.26
2022-09-25T02:01:22.514Z,1009.24
2022-09-25T02:02:22.419Z,1009.25
2022-09-25T02:03:22.343Z,1009.25
2022-09-25T02:04:22.332Z,1009.22
2022-09-25T02:05:22.338Z,1009.23
2022-09-25T02:06:22.342Z,1009.20
2022-09-25T02:07:22.327Z,1009.18
2022-09-25T02:08:22.329Z,1009.16
2022-09-25T02:09:22.329Z,1009.15
2022-09-25T02:10:22.330Z,1009.15
2022-09-25T02:11:22.337Z,1009.17
2022-09-25T02:12:22.323Z,1009.13
2022-09-25T02:13:22.321Z,1009.15
2022-09-25T02:14:22.311Z,1009.14
2022-09-25T02:15:22.311Z,1009.18
2022-09-25T02:16:22.427Z,1009.11
2022-09-25T02:17:22.331Z,1009.12
2022-09-25T02:18:22.300Z,1009.10
2022-09-25T02:19:22.304Z,1009.09
2022-09-25T02:20:22.319Z,1009.13
2022-09-25T02:21:22.293Z,1009.14
2022-09-25T02:22:22.285Z,1009.12
2022-09-25T02:23:22.297Z,1009.16
2022-09-25T02:24:22.294Z,1009.16
2022-09-25T02:25:22.278Z,1009.20
2022-09-25T02:26:22.280Z,1009.18
2022-09-25T02:27:22.277Z,1009.17
2022-09-25T02:28:22.270Z,1009.20
2022-09-25T02:29:22.277Z,1009.18
2022-09-25T02:30:22.342Z,1009.21
2022-09-25T02:31:22.268Z,1009.25
2022-09-25T02:32:22.265Z,1009.22
2022-09-25T02:33:22.276Z,1009.24
2022-09-25T02:34:22.280Z,1009.26
2022-09-25T02:35:22.251Z,1009.27
2022-09-25T02:36:22.263Z,1009.22
2022-09-25T02:37:22.245Z,1009.26
2022-09-25T02:38:22.504Z,1009.25
2022-09-25T02:40:12.565Z,1009.25
2022-09-25T02:41:12.532Z,1009.26
2022-09-25T02:42:12.522Z,1009.28
2022-09-25T02:43:12.526Z,1009.28
2022-09-25T02:44:12.596Z,1009.28
2022-09-25T02:45:12.527Z,1009.27
2022-09-25T02:46:12.573Z,1009.29
2022-09-25T02:47:12.511Z,1009.27
2022-09-25T02:48:12.513Z,1009.26
2022-09-25T02:49:12.530Z,1009.29
2022-09-25T02:50:12.590Z,1009.28
2022-09-25T02:51:12.496Z,1009.29
2022-09-25T02:52:12.504Z,1009.24
2022-09-25T02:53:12.501Z,1009.23
2022-09-25T02:54:12.634Z,1009.22
2022-09-25T02:55:12.494Z,1009.22
2022-09-25T02:56:12.496Z,1009.26
2022-09-25T02:57:12.495Z,1009.24
2022-09-25T02:58:12.489Z,1009.19
2022-09-25T02:59:12.479Z,1009.19
2022-09-25T03:00:12.471Z,1009.21
2022-09-25T03:01:12.541Z,1009.18
2022-09-25T03:02:12.541Z,1009.19
2022-09-25T03:03:12.470Z,1009.22
2022-09-25T03:04:12.571Z,1009.19
2022-09-25T03:05:12.489Z,1009.20
2022-09-25T03:06:12.464Z,1009.19
2022-09-25T03:07:12.453Z,1009.19
2022-09-25T03:08:12.463Z,1009.21
2022-09-25T03:09:12.457Z,1009.21
2022-09-25T03:10:12.459Z,1009.21
2022-09-25T03:11:12.509Z,1009.22
2022-09-25T03:12:12.443Z,1009.22
2022-09-25T03:13:12.456Z,1009.26
2022-09-25T03:14:12.618Z,1009.21
2022-09-25T03:15:12.440Z,1009.28
2022-09-25T03:16:12.478Z,1009.25
2022-09-25T03:17:12.453Z,1009.28
2022-09-25T03:18:12.446Z,1009.29
2022-09-25T03:19:12.428Z,1009.29
2022-09-25T03:20:12.428Z,1009.28
2022-09-25T03:21:12.447Z,1009.28
2022-09-25T03:22:12.416Z,1009.30
2022-09-25T03:23:12.413Z,1009.29
2022-09-25T03:24:12.576Z,1009.30
2022-09-25T03:25:12.413Z,1009.29
2022-09-25T03:26:12.408Z,1009.29
2022-09-25T03:27:12.410Z,1009.29
2022-09-25T03:28:12.399Z,1009.34
2022-09-25T03:29:12.398Z,1009.31
2022-09-25T03:30:12.405Z,1009.29
2022-09-25T03:31:12.459Z,1009.31
2022-09-25T03:32:12.389Z,1009.33
2022-09-25T03:33:12.387Z,1009.30
2022-09-25T03:34:12.551Z,1009.28
2022-09-25T03:35:12.381Z,1009.27
2022-09-25T03:36:12.394Z,1009.25
2022-09-25T03:37:12.407Z,1009.32
2022-09-25T03:38:12.381Z,1009.28
2022-09-25T03:39:12.379Z,1009.26
2022-09-25T03:40:12.462Z,1009.29
2022-09-25T03:41:12.390Z,1009.28
2022-09-25T03:42:12.367Z,1009.28
2022-09-25T03:43:51.746Z,1009.29
2022-09-25T03:44:51.666Z,1009.32
2022-09-25T03:45:51.714Z,1009.32
2022-09-25T03:46:51.669Z,1009.34
2022-09-25T03:47:51.663Z,1009.33
2022-09-25T03:48:51.659Z,1009.36
2022-09-25T03:49:51.661Z,1009.32
2022-09-25T03:50:51.665Z,1009.29
2022-09-25T03:51:51.650Z,1009.34
2022-09-25T03:52:51.665Z,1009.31
2022-09-25T03:53:51.651Z,1009.31
2022-09-25T03:54:51.641Z,1009.33
2022-09-25T03:55:51.640Z,1009.30
2022-09-25T03:56:51.646Z,1009.33
2022-09-25T03:57:51.633Z,1009.32
2022-09-25T03:58:51.641Z,1009.31
2022-09-25T03:59:51.641Z,1009.31
2022-09-25T04:00:51.647Z,1009.32
2022-09-25T04:01:51.702Z,1009.29
2022-09-25T04:03:07.659Z,1009.28
2022-09-25T04:03:51.626Z,1009.31
2022-09-25T04:04:51.629Z,1009.32
2022-09-25T04:05:51.617Z,1009.34
2022-09-25T04:06:51.608Z,1009.32
2022-09-25T04:07:51.613Z,1009.27
2022-09-25T04:08:51.634Z,1009.36
2022-09-25T04:09:51.604Z,1009.28
2022-09-25T04:10:51.595Z,1009.28
2022-09-25T04:11:51.600Z,1009.32
2022-09-25T04:12:51.598Z,1009.31
2022-09-25T04:13:51.591Z,1009.35
2022-09-25T04:14:51.596Z,1009.36
2022-09-25T04:15:51.903Z,1009.31
2022-09-25T04:16:51.661Z,1009.33
2022-09-25T04:17:51.584Z,1009.32
2022-09-25T04:18:51.572Z,1009.35
2022-09-25T04:19:51.576Z,1009.34
2022-09-25T04:20:51.574Z,1009.34
2022-09-25T04:21:51.564Z,1009.34
2022-09-25T04:22:51.566Z,1009.37
2022-09-25T04:23:51.559Z,1009.35
2022-09-25T04:24:51.608Z,1009.40
2022-09-25T04:25:51.554Z,1009.40
2022-09-25T04:26:51.553Z,1009.41
2022-09-25T04:27:51.565Z,1009.37
2022-09-25T04:28:51.561Z,1009.35
2022-09-25T04:29:51.550Z,1009.36
2022-09-25T04:30:51.551Z,1009.36
2022-09-25T04:31:51.592Z,1009.36
2022-09-25T04:32:51.543Z,1009.36
2022-09-25T04:33:51.541Z,1009.39
2022-09-25T04:34:51.537Z,1009.38
2022-09-25T04:35:51.540Z,1009.34
2022-09-25T04:36:51.533Z,1009.36
2022-09-25T04:37:51.530Z,1009.35
2022-09-25T04:38:51.532Z,1009.36
2022-09-25T04:39:51.524Z,1009.34
2022-09-25T04:40:51.580Z,1009.32
2022-09-25T04:41:51.515Z,1009.39
2022-09-25T04:42:51.530Z,1009.36
2022-09-25T04:43:51.512Z,1009.35
2022-09-25T04:44:51.509Z,1009.33
2022-09-25T04:45:51.537Z,1009.38
2022-09-25T04:46:51.591Z,1009.32
2022-09-25T04:47:51.505Z,1009.38
2022-09-25T04:48:51.501Z,1009.35
2022-09-25T04:49:51.499Z,1009.42
2022-09-25T04:50:51.496Z,1009.40
2022-09-25T04:51:51.496Z,1009.41
2022-09-25T04:52:51.486Z,1009.42
2022-09-25T04:53:51.491Z,1009.39
2022-09-25T04:54:51.484Z,1009.40
2022-09-25T04:55:51.479Z,1009.44
2022-09-25T04:56:51.489Z,1009.41
2022-09-25T04:57:58.699Z,1009.41
2022-09-25T04:58:51.471Z,1009.44
2022-09-25T04:59:51.467Z,1009.46
2022-09-25T05:00:51.567Z,1009.45
2022-09-25T05:01:51.686Z,1009.46
2022-09-25T05:02:51.588Z,1009.49
2022-09-25T05:03:51.526Z,1009.48
2022-09-25T05:04:51.449Z,1009.48
2022-09-25T05:05:51.446Z,1009.45
2022-09-25T05:06:51.448Z,1009.46
2022-09-25T05:07:51.441Z,1009.52
2022-09-25T05:08:51.447Z,1009.51
2022-09-25T05:09:51.432Z,1009.50
2022-09-25T05:10:51.440Z,1009.48
2022-09-25T05:11:51.446Z,1009.48
2022-09-25T05:12:51.452Z,1009.47
2022-09-25T05:13:51.614Z,1009.43
2022-09-25T05:14:51.426Z,1009.43
2022-09-25T05:15:51.490Z,1009.43
2022-09-25T05:16:51.426Z,1009.43
2022-09-25T05:17:51.423Z,1009.45
2022-09-25T05:18:51.406Z,1009.46
2022-09-25T05:19:51.403Z,1009.43
2022-09-25T05:20:51.407Z,1009.44
2022-09-25T05:21:51.403Z,1009.43
2022-09-25T05:22:51.410Z,1009.42
2022-09-25T05:23:51.412Z,1009.43
2022-09-25T05:24:54.145Z,1009.43
2022-09-25T05:25:51.394Z,1009.46
2022-09-25T05:26:51.393Z,1009.49
2022-09-25T05:27:51.392Z,1009.47
2022-09-25T05:28:51.410Z,1009.49
2022-09-25T05:29:51.387Z,1009.49
2022-09-25T05:30:51.381Z,1009.51
2022-09-25T05:31:51.465Z,1009.56
2022-09-25T05:32:51.378Z,1009.53
2022-09-25T05:33:51.379Z,1009.53
2022-09-25T05:34:51.374Z,1009.52
2022-09-25T05:35:51.363Z,1009.55
2022-09-25T05:36:51.356Z,1009.53
2022-09-25T05:37:51.364Z,1009.60
2022-09-25T05:38:51.361Z,1009.54
2022-09-25T05:39:51.351Z,1009.56
2022-09-25T05:40:51.435Z,1009.61
2022-09-25T05:41:51.346Z,1009.60
2022-09-25T05:42:51.351Z,1009.60
2022-09-25T05:43:51.356Z,1009.63
2022-09-25T05:44:51.362Z,1009.57
2022-09-25T05:45:51.379Z,1009.57
2022-09-25T05:46:51.331Z,1009.58
2022-09-25T05:47:51.339Z,1009.56
2022-09-25T05:48:51.347Z,1009.58
2022-09-25T05:49:51.324Z,1009.58
2022-09-25T05:50:51.321Z,1009.61
2022-09-25T05:51:51.312Z,1009.59
2022-09-25T05:52:51.313Z,1009.60
2022-09-25T05:53:51.322Z,1009.56
2022-09-25T05:54:51.304Z,1009.55
2022-09-25T05:55:51.313Z,1009.57
2022-09-25T05:56:51.310Z,1009.56
2022-09-25T05:57:51.308Z,1009.56
2022-09-25T05:58:51.306Z,1009.58
2022-09-25T05:59:51.302Z,1009.58
2022-09-25T06:00:51.307Z,1009.57
2022-09-25T06:01:51.350Z,1009.62
2022-09-25T06:02:51.390Z,1009.61
2022-09-25T06:03:51.289Z,1009.61
2022-09-25T06:04:51.276Z,1009.65
2022-09-25T06:05:51.281Z,1009.68
2022-09-25T06:06:51.281Z,1009.63
2022-09-25T06:07:51.284Z,1009.64
2022-09-25T06:08:51.266Z,1009.68
2022-09-25T06:09:51.273Z,1009.62
2022-09-25T06:10:51.266Z,1009.67
2022-09-25T06:11:51.265Z,1009.70
2022-09-25T06:12:51.256Z,1009.68
2022-09-25T06:13:54.435Z,1009.77
2022-09-25T06:14:51.271Z,1009.77
2022-09-25T06:15:51.347Z,1009.76
2022-09-25T06:16:51.275Z,1009.71
2022-09-25T06:17:51.247Z,1009.74
2022-09-25T06:18:51.250Z,1009.71
2022-09-25T06:19:51.236Z,1009.72
2022-09-25T06:20:51.236Z,1009.74
2022-09-25T06:21:51.248Z,1009.70
2022-09-25T06:22:51.224Z,1009.71
2022-09-25T06:23:51.232Z,1009.73
2022-09-25T06:24:51.245Z,1009.77
2022-09-25T06:25:51.237Z,1009.73
2022-09-25T06:26:51.212Z,1009.72
2022-09-25T06:27:51.221Z,1009.73
2022-09-25T06:28:51.224Z,1009.70
2022-09-25T06:29:51.211Z,1009.74
2022-09-25T06:30:51.310Z,1009.73
2022-09-25T06:31:51.201Z,1009.77
2022-09-25T06:32:51.226Z,1009.76
2022-09-25T06:33:51.207Z,1009.73
2022-09-25T06:34:51.206Z,1009.76
2022-09-25T06:35:51.215Z,1009.77
2022-09-25T06:36:51.192Z,1009.77
2022-09-25T06:37:51.191Z,1009.74
2022-09-25T06:38:51.195Z,1009.80
2022-09-25T06:39:51.202Z,1009.78
2022-09-25T06:40:51.285Z,1009.77
2022-09-25T06:41:51.181Z,1009.80
2022-09-25T06:42:51.175Z,1009.80
2022-09-25T06:43:51.165Z,1009.80
2022-09-25T06:44:51.163Z,1009.78
2022-09-25T06:45:51.317Z,1009.82
2022-09-25T06:46:51.227Z,1009.82
2022-09-25T06:47:51.162Z,1009.82
2022-09-25T06:48:51.185Z,1009.85
2022-09-25T06:49:51.154Z,1009.89
2022-09-25T06:50:51.154Z,1009.88
2022-09-25T06:51:51.257Z,1009.89
2022-09-25T06:52:51.142Z,1009.90
2022-09-25T06:53:51.147Z,1009.92
2022-09-25T06:54:51.134Z,1009.94
2022-09-25T06:55:51.154Z,1009.89
2022-09-25T06:56:51.137Z,1009.97
2022-09-25T06:57:51.142Z,1009.97
2022-09-25T06:58:51.138Z,1009.96
2022-09-25T06:59:51.121Z,1009.97
2022-09-25T07:00:51.137Z,1009.98
2022-09-25T07:01:51.232Z,1010.02
2022-09-25T07:02:51.183Z,1010.03
2022-09-25T07:03:51.109Z,1009.98
2022-09-25T07:04:51.213Z,1010.01
2022-09-25T07:05:51.109Z,1009.99
2022-09-25T07:06:51.114Z,1010.02
2022-09-25T07:07:51.101Z,1010.06
2022-09-25T07:08:51.104Z,1010.08
2022-09-25T07:09:51.094Z,1010.10
2022-09-25T07:10:51.102Z,1010.07
2022-09-25T07:11:51.095Z,1010.11
2022-09-25T07:12:51.099Z,1010.09
2022-09-25T07:13:51.092Z,1010.08
2022-09-25T07:14:51.095Z,1010.10
2022-09-25T07:15:51.133Z,1010.10
2022-09-25T07:16:51.088Z,1010.15
2022-09-25T07:17:51.074Z,1010.15
2022-09-25T07:18:51.078Z,1010.20
2022-09-25T07:19:51.069Z,1010.16
2022-09-25T07:20:51.174Z,1010.19
2022-09-25T07:21:51.078Z,1010.17
2022-09-25T07:22:51.066Z,1010.17
2022-09-25T07:23:51.061Z,1010.18
2022-09-25T07:24:51.060Z,1010.18
2022-09-25T07:25:51.072Z,1010.18
2022-09-25T07:26:51.046Z,1010.18
2022-09-25T07:27:51.048Z,1010.16
2022-09-25T07:28:51.044Z,1010.17
2022-09-25T07:29:51.046Z,1010.19
2022-09-25T07:30:51.092Z,1010.22
2022-09-25T07:31:51.040Z,1010.18
2022-09-25T07:32:51.040Z,1010.15
2022-09-25T07:33:51.032Z,1010.16
2022-09-25T07:34:51.040Z,1010.22
2022-09-25T07:35:51.018Z,1010.20
2022-09-25T07:36:51.036Z,1010.23
2022-09-25T07:37:51.027Z,1010.19
2022-09-25T07:38:51.015Z,1010.19
2022-09-25T07:39:51.025Z,1010.15
2022-09-25T07:40:51.071Z,1010.16
2022-09-25T07:41:51.015Z,1010.18
2022-09-25T07:42:51.007Z,1010.15
2022-09-25T07:43:55.135Z,1010.15
2022-09-25T07:44:51.252Z,1010.15
2022-09-25T07:45:51.062Z,1010.17
2022-09-25T07:46:51.062Z,1010.20
2022-09-25T07:47:50.993Z,1010.18
2022-09-25T07:48:51.000Z,1010.16
2022-09-25T07:49:50.983Z,1010.20
2022-09-25T07:50:50.977Z,1010.17
2022-09-25T07:51:50.988Z,1010.19
2022-09-25T07:52:50.997Z,1010.18
2022-09-25T07:53:50.977Z,1010.18
2022-09-25T07:54:50.968Z,1010.21
2022-09-25T07:55:50.978Z,1010.18
2022-09-25T07:56:50.963Z,1010.19
2022-09-25T07:57:50.970Z,1010.20
2022-09-25T07:58:50.960Z,1010.21
2022-09-25T07:59:50.958Z,1010.18
2022-09-25T08:00:50.985Z,1010.19
2022-09-25T08:01:53.962Z,1010.20
2022-09-25T08:02:51.029Z,1010.18
2022-09-25T08:03:50.937Z,1010.17
2022-09-25T08:04:50.942Z,1010.16
2022-09-25T08:05:50.938Z,1010.14
2022-09-25T08:06:50.954Z,1010.15
2022-09-25T08:07:50.942Z,1010.17
2022-09-25T08:08:50.978Z,1010.20
2022-09-25T08:09:50.928Z,1010.18
2022-09-25T08:10:50.922Z,1010.21
2022-09-25T08:11:50.922Z,1010.19
2022-09-25T08:12:50.926Z,1010.21
2022-09-25T08:13:50.918Z,1010.29
2022-09-25T08:14:50.911Z,1010.27
2022-09-25T08:15:50.954Z,1010.27
2022-09-25T08:16:50.907Z,1010.25
2022-09-25T08:17:50.912Z,1010.27
2022-09-25T08:18:50.914Z,1010.24
2022-09-25T08:19:50.903Z,1010.20
2022-09-25T08:20:50.897Z,1010.24
2022-09-25T08:21:50.899Z,1010.19
2022-09-25T08:22:50.888Z,1010.22
2022-09-25T08:23:50.912Z,1010.18
2022-09-25T08:24:50.903Z,1010.21
2022-09-25T08:25:50.922Z,1010.20
2022-09-25T08:26:50.876Z,1010.21
2022-09-25T08:27:50.874Z,1010.22
2022-09-25T08:28:50.936Z,1010.24
2022-09-25T08:29:50.883Z,1010.24
2022-09-25T08:30:50.917Z,1010.24
2022-09-25T08:31:50.865Z,1010.27
2022-09-25T08:32:50.865Z,1010.25
2022-09-25T08:33:50.864Z,1010.28
2022-09-25T08:34:50.854Z,1010.34
2022-09-25T08:35:50.859Z,1010.30
2022-09-25T08:36:50.858Z,1010.33
2022-09-25T08:37:50.861Z,1010.28
2022-09-25T08:38:50.839Z,1010.30
2022-09-25T08:39:50.848Z,1010.26
2022-09-25T08:40:50.923Z,1010.28
2022-09-25T08:41:50.836Z,1010.26
2022-09-25T08:42:50.841Z,1010.26
2022-09-25T08:43:50.836Z,1010.24
2022-09-25T08:45:16.802Z,1010.24
2022-09-25T08:45:50.881Z,1010.25
2022-09-25T08:46:50.826Z,1010.29
2022-09-25T08:47:50.826Z,1010.29
2022-09-25T08:48:50.816Z,1010.27
2022-09-25T08:49:50.809Z,1010.31
2022-09-25T08:50:50.819Z,1010.28
2022-09-25T08:51:50.811Z,1010.30
2022-09-25T08:52:50.804Z,1010.28
2022-09-25T08:53:50.808Z,1010.24
2022-09-25T08:54:50.816Z,1010.23
2022-09-25T08:55:50.802Z,1010.24
2022-09-25T08:56:50.808Z,1010.26
2022-09-25T08:57:50.801Z,1010.24
2022-09-25T08:58:50.820Z,1010.24
2022-09-25T08:59:50.830Z,1010.22
2022-09-25T09:00:50.807Z,1010.21
2022-09-25T09:01:50.917Z,1010.23
2022-09-25T09:02:50.831Z,1010.18
2022-09-25T09:03:50.774Z,1010.21
2022-09-25T09:04:50.848Z,1010.19
2022-09-25T09:05:51.784Z,1010.19
2022-09-25T09:07:08.201Z,1010.19
2022-09-25T09:07:50.763Z,1010.17
2022-09-25T09:08:50.835Z,1010.18
2022-09-25T09:09:50.757Z,1010.25
2022-09-25T09:10:50.760Z,1010.25
2022-09-25T09:11:50.760Z,1010.20
2022-09-25T09:12:50.776Z,1010.23
2022-09-25T09:13:50.744Z,1010.22
2022-09-25T09:14:50.742Z,1010.17
2022-09-25T09:15:50.808Z,1010.19
2022-09-25T09:16:50.810Z,1010.21
2022-09-25T09:17:50.747Z,1010.19
2022-09-25T09:18:50.746Z,1010.23
2022-09-25T09:19:50.780Z,1010.23
2022-09-25T09:20:50.736Z,1010.25
2022-09-25T09:21:50.735Z,1010.28
2022-09-25T09:22:50.818Z,1010.30
2022-09-25T09:23:50.736Z,1010.30
2022-09-25T09:24:50.722Z,1010.33
2022-09-25T09:25:50.735Z,1010.33
2022-09-25T09:26:50.741Z,1010.36
2022-09-25T09:27:50.718Z,1010.32
2022-09-25T09:28:50.726Z,1010.37
2022-09-25T09:29:50.720Z,1010.38
2022-09-25T09:30:50.813Z,1010.39
2022-09-25T09:31:50.746Z,1010.35
2022-09-25T09:32:50.767Z,1010.35
2022-09-25T09:33:50.720Z,1010.36
2022-09-25T09:35:05.241Z,1010.34
2022-09-25T09:35:50.694Z,1010.33
2022-09-25T09:36:50.771Z,1010.29
2022-09-25T09:37:50.679Z,1010.29
2022-09-25T09:38:50.728Z,1010.29
2022-09-25T09:39:50.695Z,1010.26
2022-09-25T09:40:50.742Z,1010.24
2022-09-25T09:41:50.697Z,1010.27
2022-09-25T09:42:50.685Z,1010.26
2022-09-25T09:43:56.560Z,1010.26
2022-09-25T09:44:50.683Z,1010.20
2022-09-25T09:45:50.733Z,1010.23
2022-09-25T09:46:50.671Z,1010.21
2022-09-25T09:47:50.747Z,1010.18
2022-09-25T09:48:50.682Z,1010.22
2022-09-25T09:49:50.664Z,1010.20
2022-09-25T09:50:52.774Z,1010.19
2022-09-25T09:51:50.656Z,1010.20
2022-09-25T09:52:50.656Z,1010.17
2022-09-25T09:53:50.659Z,1010.14
2022-09-25T09:54:50.645Z,1010.15
2022-09-25T09:55:50.639Z,1010.15
2022-09-25T09:56:50.654Z,1010.11
2022-09-25T09:57:50.645Z,1010.12
2022-09-25T09:58:50.633Z,1010.12
2022-09-25T09:59:50.640Z,1010.09
2022-09-25T10:00:50.780Z,1010.06
2022-09-25T10:01:50.741Z,1010.09
2022-09-25T10:02:50.778Z,1010.04
2022-09-25T10:03:50.629Z,1010.03
2022-09-25T10:04:50.646Z,1010.08
2022-09-25T10:05:50.634Z,1010.04
2022-09-25T10:06:50.622Z,1010.03
2022-09-25T10:07:50.615Z,1010.04
2022-09-25T10:08:50.619Z,1010.06
2022-09-25T10:09:50.624Z,1010.04
2022-09-25T10:10:50.612Z,1010.06
2022-09-25T10:11:50.639Z,1010.03
2022-09-25T10:12:50.619Z,1010.03
2022-09-25T10:13:50.595Z,1010.02
2022-09-25T10:14:50.615Z,1009.99
2022-09-25T10:15:50.629Z,1010.00
2022-09-25T10:16:50.690Z,1010.02
2022-09-25T10:17:50.580Z,1009.97
2022-09-25T10:18:50.592Z,1010.03
2022-09-25T10:19:50.652Z,1010.03
2022-09-25T10:20:50.587Z,1009.97
2022-09-25T10:21:50.580Z,1010.01
2022-09-25T10:22:50.641Z,1010.05
2022-09-25T10:23:50.585Z,1010.02
2022-09-25T10:24:50.597Z,1010.01
2022-09-25T10:25:55.749Z,1010.03
2022-09-25T10:26:50.573Z,1010.03
2022-09-25T10:27:50.574Z,1010.03
2022-09-25T10:28:50.585Z,1010.00
2022-09-25T10:29:50.560Z,1010.03
2022-09-25T10:30:50.621Z,1010.02
2022-09-25T10:31:50.554Z,1010.05
2022-09-25T10:32:56.453Z,1010.05
2022-09-25T10:33:50.551Z,1010.09
2022-09-25T10:34:50.551Z,1010.08
2022-09-25T10:35:50.545Z,1010.11
2022-09-25T10:36:50.546Z,1010.12
2022-09-25T10:37:50.548Z,1010.08
2022-09-25T10:38:54.667Z,1010.10
2022-09-25T10:39:50.685Z,1010.08
2022-09-25T10:40:50.634Z,1010.03
2022-09-25T10:41:50.562Z,1010.02
2022-09-25T10:42:50.590Z,1010.02
2022-09-25T10:43:50.524Z,1010.02
2022-09-25T10:44:54.214Z,1010.00
2022-09-25T10:45:50.548Z,1009.99
2022-09-25T10:46:50.523Z,1009.93
2022-09-25T10:47:50.523Z,1009.96
2022-09-25T10:48:50.539Z,1009.96
2022-09-25T10:49:50.508Z,1009.92
2022-09-25T10:50:50.505Z,1009.90
2022-09-25T10:51:50.526Z,1009.92
2022-09-25T10:52:50.498Z,1009.95
2022-09-25T10:53:50.508Z,1009.93
2022-09-25T10:54:50.499Z,1009.92
2022-09-25T10:55:50.489Z,1009.92
2022-09-25T10:56:50.491Z,1009.90
2022-09-25T10:57:50.515Z,1009.86
2022-09-25T10:58:50.485Z,1009.87
2022-09-25T10:59:50.482Z,1009.89
2022-09-25T11:00:50.486Z,1009.87
2022-09-25T11:01:50.636Z,1009.86
2022-09-25T11:02:50.511Z,1009.92
2022-09-25T11:03:50.480Z,1009.86
2022-09-25T11:04:50.589Z,1009.88
2022-09-25T11:05:50.483Z,1009.85
2022-09-25T11:06:50.468Z,1009.88
2022-09-25T11:07:50.482Z,1009.89
2022-09-25T11:08:50.461Z,1009.89
2022-09-25T11:09:50.460Z,1009.88
2022-09-25T11:10:50.453Z,1009.82
2022-09-25T11:11:50.444Z,1009.88
2022-09-25T11:12:50.456Z,1009.87
2022-09-25T11:13:50.454Z,1009.90
2022-09-25T11:14:50.450Z,1009.91
2022-09-25T11:15:50.439Z,1009.90
2022-09-25T11:16:50.505Z,1009.90
2022-09-25T11:17:50.442Z,1009.98
2022-09-25T11:18:50.431Z,1009.86
2022-09-25T11:19:50.433Z,1009.96
2022-09-25T11:20:50.456Z,1009.92
2022-09-25T11:21:50.425Z,1009.93
2022-09-25T11:22:50.425Z,1009.92
2022-09-25T11:23:50.422Z,1009.91
2022-09-25T11:24:50.423Z,1009.93
2022-09-25T11:25:50.414Z,1009.88
2022-09-25T11:26:50.416Z,1009.81
2022-09-25T11:27:50.415Z,1009.86
2022-09-25T11:28:50.432Z,1009.85
2022-09-25T11:29:50.413Z,1009.77
2022-09-25T11:30:50.438Z,1009.86
2022-09-25T11:31:50.397Z,1009.86
2022-09-25T11:32:52.876Z,1009.82
2022-09-25T11:33:50.396Z,1009.76
2022-09-25T11:34:50.398Z,1009.87
2022-09-25T11:35:50.390Z,1009.83
2022-09-25T11:36:50.498Z,1009.85
2022-09-25T11:37:50.383Z,1009.83
2022-09-25T11:38:50.383Z,1009.84
2022-09-25T11:39:50.391Z,1009.84
2022-09-25T11:40:50.422Z,1009.76
2022-09-25T11:41:50.383Z,1009.79
2022-09-25T11:42:50.373Z,1009.79
2022-09-25T11:43:53.117Z,1009.77
2022-09-25T11:44:50.371Z,1009.75
2022-09-25T11:45:50.449Z,1009.81
2022-09-25T11:46:50.459Z,1009.76
2022-09-25T11:47:50.362Z,1009.78
2022-09-25T11:48:50.353Z,1009.78
2022-09-25T11:49:50.353Z,1009.78
2022-09-25T11:50:50.349Z,1009.76
2022-09-25T11:51:50.367Z,1009.76
2022-09-25T11:52:50.374Z,1009.71
2022-09-25T11:53:50.349Z,1009.72
2022-09-25T11:54:50.345Z,1009.72
2022-09-25T11:55:50.345Z,1009.77
2022-09-25T11:56:50.335Z,1009.77
2022-09-25T11:57:50.340Z,1009.77
2022-09-25T11:58:50.341Z,1009.77
2022-09-25T11:59:50.326Z,1009.71
2022-09-25T12:00:50.334Z,1009.73
2022-09-25T12:01:50.356Z,1009.72
2022-09-25T12:02:50.399Z,1009.71
2022-09-25T12:03:50.335Z,1009.70
2022-09-25T12:04:50.326Z,1009.66
2022-09-25T12:05:50.317Z,1009.70
2022-09-25T12:06:50.328Z,1009.64